Time;durP1;ratioP1;P1;durP2;ratioP2;P2;SDS_P1;SDS_P2;PMS_P1;PMS_P2;Temp;Humidity;BMP_temperature;BMP_pressure;BME280_temperature;BME280_humidity;BME280_pressure;Samples;Min_cycle;Max_cycle;Signal;HPM_P1;HPM_P2
2022/12/27 00:00:39;;;;;;;1.05;0.80;;;7.40;99.90;;;;;;5061476;28;20672;-84
2022/12/27 00:03:06;;;;;;;1.00;0.90;;;7.50;99.90;;;;;;5065774;28;20201;-85
2022/12/27 00:05:33;;;;;;;2.17;0.98;;;7.40;99.90;;;;;;5068920;28;20204;-85
2022/12/27 00:08:00;;;;;;;0.75;0.75;;;7.50;99.90;;;;;;5062780;28;20205;-85
2022/12/27 00:10:27;;;;;;;0.95;0.80;;;7.60;99.90;;;;;;5070194;28;20229;-85
2022/12/27 00:12:53;;;;;;;2.05;0.93;;;7.50;99.90;;;;;;5060683;28;20194;-85
2022/12/27 00:15:20;;;;;;;0.88;0.88;;;7.50;99.90;;;;;;5063258;28;20235;-85
2022/12/27 00:17:49;;;;;;;0.80;0.80;;;7.50;99.90;;;;;;5063208;28;20588;-85
2022/12/27 00:20:16;;;;;;;0.80;0.80;;;7.40;99.90;;;;;;5063256;28;20207;-84
2022/12/27 00:22:43;;;;;;;1.10;1.00;;;7.40;99.90;;;;;;5065991;28;20213;-84
2022/12/27 00:25:11;;;;;;;1.00;1.00;;;7.50;99.90;;;;;;5067548;28;20681;-84
2022/12/27 00:27:38;;;;;;;2.05;1.10;;;7.40;99.90;;;;;;5059450;28;20197;-84
2022/12/27 00:30:05;;;;;;;1.17;1.08;;;7.40;99.90;;;;;;5065814;28;20236;-84
2022/12/27 00:32:32;;;;;;;2.95;1.15;;;7.40;99.90;;;;;;5062969;28;20316;-85
2022/12/27 00:35:00;;;;;;;0.82;0.82;;;7.40;99.90;;;;;;5064373;28;20225;-84
2022/12/27 00:37:27;;;;;;;0.85;0.85;;;7.40;99.90;;;;;;5067527;28;20220;-84
2022/12/27 00:39:54;;;;;;;1.20;0.90;;;7.30;99.90;;;;;;5062309;28;20205;-84
2022/12/27 00:42:21;;;;;;;0.90;0.90;;;7.30;99.90;;;;;;5060641;28;20373;-84
2022/12/27 00:44:48;;;;;;;2.38;0.88;;;7.40;99.90;;;;;;5064112;28;20197;-85
2022/12/27 00:47:14;;;;;;;2.22;1.00;;;7.40;99.90;;;;;;5063111;28;20197;-84
2022/12/27 00:49:41;;;;;;;1.50;1.10;;;7.40;99.90;;;;;;5068619;28;20205;-84
2022/12/27 00:52:09;;;;;;;1.55;1.02;;;7.40;99.90;;;;;;5057875;28;20204;-84
2022/12/27 00:54:36;;;;;;;0.80;0.80;;;7.40;99.90;;;;;;5060453;28;20720;-85
2022/12/27 00:57:03;;;;;;;1.75;0.98;;;7.30;99.90;;;;;;5060864;28;20204;-84
2022/12/27 00:59:30;;;;;;;1.73;1.02;;;7.40;99.90;;;;;;5067205;28;20655;-84
2022/12/27 01:01:57;;;;;;;1.80;1.08;;;7.40;99.90;;;;;;5061750;28;20203;-84
2022/12/27 01:04:23;;;;;;;1.48;1.13;;;7.40;99.90;;;;;;5065552;28;20209;-85
2022/12/27 01:06:50;;;;;;;2.42;1.17;;;7.30;99.80;;;;;;5067466;28;20201;-84
2022/12/27 01:09:18;;;;;;;1.53;1.00;;;7.30;99.10;;;;;;5057699;28;20248;-84
2022/12/27 01:11:45;;;;;;;2.27;1.10;;;7.20;98.60;;;;;;5063386;28;20279;-84
2022/12/27 01:14:12;;;;;;;1.60;1.20;;;7.00;99.10;;;;;;5062201;28;20513;-85
2022/12/27 01:16:39;;;;;;;1.80;1.20;;;7.00;99.00;;;;;;5062915;28;20202;-85
2022/12/27 01:19:06;;;;;;;2.10;1.17;;;6.90;98.60;;;;;;5068223;28;20548;-84
2022/12/27 01:21:33;;;;;;;1.50;1.00;;;6.90;98.10;;;;;;5065360;28;20202;-85
2022/12/27 01:23:59;;;;;;;3.13;1.10;;;6.80;98.20;;;;;;5064160;28;20213;-85
2022/12/27 01:26:28;;;;;;;1.17;1.07;;;6.80;98.50;;;;;;5060972;28;20197;-85
2022/12/27 01:28:55;;;;;;;3.20;1.40;;;6.70;98.70;;;;;;5060002;28;20568;-85
2022/12/27 01:31:24;;;;;;;2.33;1.10;;;6.70;98.00;;;;;;5058573;28;20204;-85
2022/12/27 01:33:55;;;;;;;2.10;1.10;;;6.70;97.50;;;;;;5063804;28;20197;-84
2022/12/27 01:36:24;;;;;;;2.80;1.10;;;6.70;97.50;;;;;;5060710;28;20229;-84
2022/12/27 01:38:51;;;;;;;1.93;1.10;;;6.70;97.60;;;;;;5066859;28;20212;-84
2022/12/27 01:44:38;;;;;;;1.97;1.17;;;6.70;98.00;;;;;;5064771;28;20204;-85
2022/12/27 01:47:14;;;;;;;1.20;1.10;;;6.60;97.70;;;;;;5060751;28;20694;-85
2022/12/27 01:49:44;;;;;;;2.07;1.20;;;6.60;97.70;;;;;;5059092;28;20204;-83
2022/12/27 01:52:13;;;;;;;2.23;1.30;;;6.50;97.20;;;;;;5064651;28;20216;-84
2022/12/27 01:54:41;;;;;;;4.40;1.10;;;6.60;97.20;;;;;;5063469;28;20268;-85
2022/12/27 01:57:08;;;;;;;1.63;1.13;;;6.50;97.20;;;;;;5062784;28;20221;-85
2022/12/27 01:59:36;;;;;;;2.60;1.20;;;6.40;97.20;;;;;;5063635;28;20208;-85
2022/12/27 02:02:03;;;;;;;2.33;1.20;;;6.30;97.40;;;;;;5060313;28;20209;-85
2022/12/27 02:04:33;;;;;;;1.57;1.17;;;6.30;97.50;;;;;;5064121;28;20216;-84
2022/12/27 02:07:00;;;;;;;1.30;1.20;;;6.20;97.70;;;;;;5061800;28;20566;-85
2022/12/27 02:09:35;;;;;;;3.57;1.30;;;6.20;97.60;;;;;;5060499;28;20233;-84
2022/12/27 02:12:05;;;;;;;1.50;1.30;;;6.10;97.90;;;;;;5064318;28;20199;-85
2022/12/27 02:14:35;;;;;;;1.23;1.13;;;6.20;97.90;;;;;;5058295;28;20198;-85
2022/12/27 02:17:07;;;;;;;1.57;1.10;;;6.30;97.80;;;;;;5064268;28;20201;-85
2022/12/27 02:19:49;;;;;;;3.20;1.30;;;6.30;97.50;;;;;;5059933;28;20569;-85
2022/12/27 02:24:01;;;;;;;3.07;1.30;;;6.30;97.70;;;;;;5066085;28;20208;-84
2022/12/27 02:25:36;;;;;;;1.70;1.53;;;6.30;97.80;;;;;;5057014;28;20289;-84
2022/12/27 02:28:16;;;;;;;3.77;1.37;;;6.30;98.00;;;;;;5059797;28;20198;-85
2022/12/27 02:30:47;;;;;;;2.40;1.10;;;6.20;97.90;;;;;;5067561;28;20189;-85
2022/12/27 02:33:18;;;;;;;1.33;1.23;;;6.20;98.30;;;;;;5057500;28;20217;-85
2022/12/27 02:35:51;;;;;;;4.83;1.47;;;6.30;98.40;;;;;;5065615;28;20229;-85
2022/12/27 02:38:21;;;;;;;2.70;1.40;;;6.30;98.00;;;;;;5058907;28;20208;-85
2022/12/27 02:55:22;;;;;;;2.83;1.43;;;6.30;98.50;;;;;;5065458;28;20232;-85
2022/12/27 02:57:57;;;;;;;4.03;1.60;;;6.40;98.20;;;;;;5057843;28;20654;-84
2022/12/27 03:03:28;;;;;;;2.57;1.40;;;6.40;98.20;;;;;;5061134;28;20326;-85
2022/12/27 03:06:40;;;;;;;2.73;1.43;;;6.40;97.90;;;;;;5061562;28;20202;-85
2022/12/27 03:15:57;;;;;;;2.37;1.50;;;6.20;97.60;;;;;;5054794;28;20868;-85
2022/12/27 03:18:57;;;;;;;1.90;1.37;;;6.10;97.50;;;;;;5057894;28;20205;-85
2022/12/27 03:27:01;;;;;;;3.40;1.27;;;6.10;95.30;;;;;;5059087;28;20233;-83
2022/12/27 03:35:10;;;;;;;2.03;1.10;;;5.90;95.30;;;;;;5059277;28;20236;-85
2022/12/27 03:40:33;;;;;;;1.50;1.13;;;5.90;95.30;;;;;;5058035;28;20674;-85
2022/12/27 03:43:09;;;;;;;1.43;1.00;;;5.90;95.30;;;;;;5057777;28;20653;-85
2022/12/27 03:48:45;;;;;;;2.23;1.20;;;5.80;95.20;;;;;;5055497;28;20708;-84
2022/12/27 03:51:14;;;;;;;1.53;1.23;;;5.70;95.20;;;;;;5059569;28;20201;-85
2022/12/27 03:53:44;;;;;;;2.73;1.40;;;5.60;95.70;;;;;;5055396;28;20213;-85
2022/12/27 03:56:12;;;;;;;1.50;1.33;;;5.70;95.20;;;;;;5056877;28;20236;-85
2022/12/27 03:58:39;;;;;;;3.23;1.03;;;5.70;95.20;;;;;;5055540;28;20198;-85
2022/12/27 04:01:05;;;;;;;2.87;1.30;;;5.70;95.20;;;;;;5057962;28;20209;-85
2022/12/27 04:03:32;;;;;;;4.73;1.43;;;5.60;95.20;;;;;;5058074;28;20204;-83
2022/12/27 04:05:59;;;;;;;1.87;1.10;;;5.50;95.20;;;;;;5058968;28;20255;-84
2022/12/27 04:35:51;;;;;;;2.87;1.30;;;5.10;95.10;;;;;;5056915;28;20261;-83
2022/12/27 04:38:17;;;;;;;2.53;1.20;;;5.00;94.20;;;;;;5058337;28;20205;-83
2022/12/27 04:57:19;;;;;;;1.30;1.10;;;4.60;91.60;;;;;;5060960;28;20208;-82
2022/12/27 05:02:34;;;;;;;1.83;1.00;;;4.50;91.50;;;;;;5065391;28;20258;-83
2022/12/27 05:05:01;;;;;;;3.10;1.23;;;4.60;91.30;;;;;;5059743;28;20300;-83
2022/12/27 05:15:42;;;;;;;2.20;1.30;;;4.50;91.40;;;;;;5060931;28;20229;-83
2022/12/27 05:18:12;;;;;;;3.53;1.40;;;4.50;91.00;;;;;;5061895;28;20198;-83
2022/12/27 05:20:38;;;;;;;3.53;1.30;;;4.50;91.30;;;;;;5059864;28;20206;-83
2022/12/27 05:25:50;;;;;;;1.60;1.00;;;4.50;91.40;;;;;;5060809;28;20212;-83
2022/12/27 05:28:18;;;;;;;3.43;1.07;;;4.50;91.10;;;;;;5058020;28;20205;-83
2022/12/27 05:30:45;;;;;;;2.53;1.10;;;4.50;90.70;;;;;;5059928;28;20649;-83
2022/12/27 05:33:11;;;;;;;2.27;1.13;;;4.50;90.40;;;;;;5060191;28;20206;-83
2022/12/27 05:35:39;;;;;;;2.03;1.00;;;4.50;89.10;;;;;;5061784;28;20224;-83
2022/12/27 05:38:06;;;;;;;2.17;1.07;;;4.40;89.90;;;;;;5055550;28;20224;-83
2022/12/27 05:40:33;;;;;;;4.43;1.40;;;4.40;90.40;;;;;;5061172;28;20221;-83
2022/12/27 05:43:01;;;;;;;1.20;1.10;;;4.50;88.70;;;;;;5060189;28;20658;-83
2022/12/27 05:45:30;;;;;;;1.40;1.13;;;4.40;88.60;;;;;;5062197;28;20213;-83
2022/12/27 05:47:59;;;;;;;2.67;1.87;;;4.50;91.30;;;;;;5055451;28;20206;-83
2022/12/27 05:50:26;;;;;;;2.83;1.20;;;4.70;91.80;;;;;;5056217;28;20202;-82
2022/12/27 05:52:54;;;;;;;2.50;1.30;;;4.60;88.70;;;;;;5061641;28;20193;-82
2022/12/27 05:55:21;;;;;;;1.13;1.03;;;4.50;86.80;;;;;;5062658;28;20208;-82
2022/12/27 05:57:48;;;;;;;3.80;1.40;;;4.50;90.40;;;;;;5060345;28;20201;-82
2022/12/27 06:00:15;;;;;;;2.20;1.23;;;4.30;88.60;;;;;;5057802;28;20209;-83
2022/12/27 06:02:43;;;;;;;4.00;1.20;;;4.30;88.50;;;;;;5061107;28;20210;-82
2022/12/27 06:05:10;;;;;;;1.53;1.20;;;4.20;88.50;;;;;;5056245;28;20198;-82
2022/12/27 06:07:38;;;;;;;1.93;1.07;;;4.20;89.30;;;;;;5061319;28;20200;-83
2022/12/27 06:10:07;;;;;;;2.87;1.10;;;4.20;89.00;;;;;;5064175;28;20220;-82
2022/12/27 06:12:37;;;;;;;1.23;1.13;;;4.10;88.40;;;;;;5060355;28;20308;-83
2022/12/27 06:15:04;;;;;;;1.20;1.10;;;3.90;89.00;;;;;;5061074;28;20201;-83
2022/12/27 06:17:32;;;;;;;2.17;1.10;;;3.90;89.80;;;;;;5057416;28;20222;-83
2022/12/27 06:20:00;;;;;;;2.23;1.07;;;3.90;90.10;;;;;;5061909;28;20208;-83
2022/12/27 06:22:26;;;;;;;4.17;1.20;;;3.90;90.00;;;;;;5062345;28;20217;-82
2022/12/27 06:24:53;;;;;;;4.03;1.20;;;3.90;90.30;;;;;;5056951;28;20202;-83
2022/12/27 06:27:20;;;;;;;2.00;1.30;;;3.70;90.80;;;;;;5056998;28;20248;-83
2022/12/27 06:29:47;;;;;;;3.80;1.30;;;3.80;90.90;;;;;;5052023;28;20198;-82
2022/12/27 06:32:16;;;;;;;1.33;1.20;;;3.80;91.10;;;;;;5055888;28;20200;-83
2022/12/27 06:34:43;;;;;;;4.10;1.20;;;3.70;91.40;;;;;;5057592;28;20201;-82
2022/12/27 06:37:11;;;;;;;2.37;1.40;;;3.60;92.10;;;;;;5062258;28;20224;-83
2022/12/27 06:39:38;;;;;;;2.47;1.37;;;3.50;93.00;;;;;;5057345;28;20202;-83
2022/12/27 06:42:05;;;;;;;3.63;1.50;;;3.40;93.50;;;;;;5061470;28;20212;-83
2022/12/27 06:44:31;;;;;;;1.80;1.10;;;3.30;94.20;;;;;;5057593;28;20228;-82
2022/12/27 06:46:58;;;;;;;2.33;1.30;;;3.40;94.50;;;;;;5066053;28;20665;-83
2022/12/27 06:49:25;;;;;;;3.30;1.60;;;3.30;94.70;;;;;;5060156;28;20193;-83
2022/12/27 06:51:52;;;;;;;2.27;1.33;;;3.30;94.70;;;;;;5056271;28;20289;-83
2022/12/27 06:54:20;;;;;;;3.57;1.53;;;3.20;95.00;;;;;;5059644;28;20197;-83
2022/12/27 06:56:47;;;;;;;1.63;1.40;;;3.10;95.40;;;;;;5056978;28;20217;-83
2022/12/27 06:59:14;;;;;;;4.27;1.83;;;3.10;95.80;;;;;;5059231;28;20205;-83
2022/12/27 07:01:41;;;;;;;3.07;1.90;;;3.00;96.00;;;;;;5058990;28;20574;-83
2022/12/27 07:04:09;;;;;;;3.43;1.90;;;2.90;96.20;;;;;;5060384;28;20649;-82
2022/12/27 07:06:37;;;;;;;2.17;1.50;;;2.90;96.60;;;;;;5062197;28;20658;-83
2022/12/27 07:09:05;;;;;;;1.77;1.33;;;2.90;96.60;;;;;;5058805;28;20241;-83
2022/12/27 07:11:35;;;;;;;3.50;1.40;;;2.90;97.10;;;;;;5056737;28;20213;-83
2022/12/27 07:14:02;;;;;;;4.00;1.60;;;2.80;97.20;;;;;;5058935;28;20197;-83
2022/12/27 07:16:30;;;;;;;2.67;1.50;;;2.80;97.20;;;;;;5054950;28;20612;-82
2022/12/27 07:18:59;;;;;;;2.53;1.50;;;2.60;97.50;;;;;;5055271;28;20195;-82
2022/12/27 07:21:28;;;;;;;3.73;1.50;;;2.60;97.90;;;;;;5057199;28;20204;-82
2022/12/27 07:23:55;;;;;;;5.87;1.53;;;2.60;98.20;;;;;;5057375;28;20217;-82
2022/12/27 07:26:25;;;;;;;5.47;1.80;;;2.70;98.20;;;;;;5057666;28;20580;-82
2022/12/27 07:28:55;;;;;;;4.90;1.67;;;2.70;98.10;;;;;;5059619;28;20284;-82
2022/12/27 07:31:25;;;;;;;2.57;1.70;;;2.80;98.20;;;;;;5054082;28;20208;-82
2022/12/27 07:33:52;;;;;;;3.97;1.80;;;2.70;98.20;;;;;;5060026;28;20303;-82
2022/12/27 07:36:22;;;;;;;3.97;1.80;;;2.70;98.90;;;;;;5057772;28;20220;-82
2022/12/27 07:38:52;;;;;;;3.27;1.93;;;2.60;99.00;;;;;;5056781;28;20208;-82
2022/12/27 07:41:19;;;;;;;5.17;2.10;;;2.50;99.30;;;;;;5057869;28;20262;-82
2022/12/27 07:43:46;;;;;;;2.87;1.67;;;2.40;99.70;;;;;;5058993;28;20213;-82
2022/12/27 07:46:16;;;;;;;2.33;2.00;;;2.60;99.70;;;;;;5058034;28;20202;-82
2022/12/27 07:48:44;;;;;;;4.73;1.80;;;2.70;99.70;;;;;;5059400;28;20206;-82
2022/12/27 07:51:11;;;;;;;4.57;2.23;;;2.80;99.40;;;;;;5058704;28;20208;-81
2022/12/27 07:53:39;;;;;;;6.60;4.17;;;2.90;99.20;;;;;;5058099;28;20202;-82
2022/12/27 07:56:07;;;;;;;7.07;3.20;;;2.90;99.10;;;;;;5059931;28;20213;-82
2022/12/27 07:58:36;;;;;;;7.17;3.30;;;2.90;99.00;;;;;;5056287;28;20626;-82
2022/12/27 08:01:04;;;;;;;7.10;3.30;;;2.80;99.30;;;;;;5056781;28;20201;-82
2022/12/27 08:03:32;;;;;;;6.00;3.67;;;2.80;99.80;;;;;;5057887;28;20201;-82
2022/12/27 08:06:01;;;;;;;6.07;3.00;;;2.90;99.80;;;;;;5061615;28;20194;-82
2022/12/27 08:08:33;;;;;;;7.13;3.40;;;3.00;99.80;;;;;;5057777;28;20204;-82
2022/12/27 08:10:59;;;;;;;8.60;3.10;;;3.10;99.90;;;;;;5058565;28;20573;-82
2022/12/27 08:13:26;;;;;;;5.13;3.00;;;3.10;99.60;;;;;;5059584;28;20198;-82
2022/12/27 08:15:54;;;;;;;3.17;2.60;;;3.20;99.50;;;;;;5059810;28;20577;-82
2022/12/27 08:18:21;;;;;;;5.07;2.73;;;3.30;99.40;;;;;;5061728;28;20204;-83
2022/12/27 08:20:50;;;;;;;4.17;2.63;;;3.30;99.10;;;;;;5056331;28;20244;-82
2022/12/27 08:23:17;;;;;;;3.63;2.13;;;3.40;99.20;;;;;;5060280;28;20224;-83
2022/12/27 08:25:45;;;;;;;2.80;2.23;;;3.50;99.20;;;;;;5062982;28;20205;-84
2022/12/27 08:28:13;;;;;;;3.27;2.30;;;3.80;98.80;;;;;;5062850;28;20266;-84
2022/12/27 08:30:41;;;;;;;2.97;2.00;;;4.00;98.10;;;;;;5063130;28;20259;-84
2022/12/27 08:33:08;;;;;;;3.20;2.00;;;4.30;97.30;;;;;;5058024;28;20213;-84
2022/12/27 08:35:39;;;;;;;1.93;1.60;;;4.40;97.30;;;;;;5058775;28;20205;-84
2022/12/27 08:38:08;;;;;;;1.90;1.40;;;4.50;96.30;;;;;;5055698;28;20225;-84
2022/12/27 08:40:39;;;;;;;8.20;1.50;;;4.60;95.00;;;;;;5060868;28;20213;-86
2022/12/27 08:43:05;;;;;;;2.50;1.43;;;4.80;95.00;;;;;;5062381;28;20201;-86
2022/12/27 08:45:32;;;;;;;2.53;1.60;;;5.00;93.30;;;;;;5062684;28;20779;-86
2022/12/27 08:47:59;;;;;;;3.57;1.50;;;5.20;92.40;;;;;;5064062;28;20587;-86
2022/12/27 08:50:26;;;;;;;3.17;1.40;;;5.40;91.70;;;;;;5063000;28;20199;-86
2022/12/27 08:52:56;;;;;;;4.18;1.30;;;5.80;91.00;;;;;;5061366;28;20212;-86
2022/12/27 08:55:24;;;;;;;2.13;1.45;;;6.40;89.00;;;;;;5064040;28;20213;-86
2022/12/27 08:57:55;;;;;;;2.08;1.20;;;7.10;85.80;;;;;;5061206;28;20690;-86
2022/12/27 09:00:22;;;;;;;3.10;1.50;;;7.70;83.10;;;;;;5061062;28;20570;-86
2022/12/27 09:02:49;;;;;;;3.58;1.60;;;8.20;79.10;;;;;;5064963;28;20201;-86
2022/12/27 09:05:16;;;;;;;1.20;1.10;;;8.40;76.00;;;;;;5061092;28;20194;-86
2022/12/27 09:07:43;;;;;;;1.33;1.20;;;9.00;64.70;;;;;;5064869;28;20202;-86
2022/12/27 09:10:10;;;;;;;2.50;1.35;;;9.40;54.40;;;;;;5070649;28;20316;-87
2022/12/27 09:12:38;;;;;;;2.30;1.30;;;9.60;54.10;;;;;;5068845;28;20209;-86
2022/12/27 09:15:06;;;;;;;3.10;1.30;;;9.90;51.50;;;;;;5064576;28;20193;-87
2022/12/27 09:17:33;;;;;;;2.08;1.15;;;10.20;49.60;;;;;;5062429;28;20229;-86
2022/12/27 09:20:00;;;;;;;4.88;1.20;;;10.70;47.50;;;;;;5068185;28;20672;-87
2022/12/27 09:22:28;;;;;;;1.75;1.27;;;11.70;38.40;;;;;;5065678;28;20213;-87
2022/12/27 09:24:55;;;;;;;2.78;1.52;;;12.40;33.20;;;;;;5060795;28;20206;-84
2022/12/27 09:27:22;;;;;;;2.15;1.40;;;12.30;32.00;;;;;;5062808;28;20206;-84
2022/12/27 09:29:50;;;;;;;2.40;1.40;;;12.70;31.50;;;;;;5063626;28;20220;-85
2022/12/27 09:32:17;;;;;;;1.40;1.30;;;12.70;29.50;;;;;;5065472;28;20197;-84
2022/12/27 09:34:44;;;;;;;2.85;1.30;;;12.70;28.20;;;;;;5061735;28;20213;-84
2022/12/27 09:37:11;;;;;;;3.15;1.50;;;12.90;26.10;;;;;;5065053;28;20251;-84
2022/12/27 09:39:38;;;;;;;2.08;1.50;;;12.80;26.00;;;;;;5058008;28;20741;-84
2022/12/27 09:42:14;;;;;;;3.33;1.40;;;12.20;28.80;;;;;;5069499;28;20190;-84
2022/12/27 09:44:49;;;;;;;3.08;1.20;;;11.90;28.90;;;;;;5064282;28;20212;-84
2022/12/27 09:47:25;;;;;;;1.95;1.35;;;11.90;27.60;;;;;;5062226;28;20211;-84
2022/12/27 09:49:56;;;;;;;1.88;1.25;;;12.00;25.40;;;;;;5064643;28;20653;-84
2022/12/27 09:52:28;;;;;;;1.40;1.23;;;11.80;25.20;;;;;;5063956;28;20209;-85
2022/12/27 09:55:01;;;;;;;1.92;1.27;;;11.20;26.70;;;;;;5063297;28;20205;-84
2022/12/27 09:57:35;;;;;;;1.83;1.05;;;10.50;29.50;;;;;;5067321;28;20217;-86
2022/12/27 10:00:07;;;;;;;1.98;1.20;;;10.00;30.70;;;;;;5068341;28;20201;-87
2022/12/27 10:02:35;;;;;;;5.30;1.30;;;9.50;34.50;;;;;;5064840;28;20600;-87
2022/12/27 10:05:03;;;;;;;2.22;1.20;;;9.20;34.20;;;;;;5062913;28;20209;-87
2022/12/27 10:07:43;;;;;;;4.72;1.10;;;9.20;35.00;;;;;;5057986;28;20208;-86
2022/12/27 10:10:17;;;;;;;2.30;1.20;;;8.90;34.10;;;;;;5063995;28;20270;-86
2022/12/27 10:13:05;;;;;;;2.03;1.10;;;8.70;37.40;;;;;;5058677;28;20224;-86
2022/12/27 10:15:42;;;;;;;2.20;1.20;;;8.50;38.50;;;;;;5060249;28;20205;-86
2022/12/27 10:18:20;;;;;;;2.15;1.10;;;8.10;39.90;;;;;;5060060;28;20225;-86
2022/12/27 10:21:08;;;;;;;1.60;1.05;;;8.30;40.00;;;;;;5057560;28;20198;-86
2022/12/27 10:23:38;;;;;;;2.25;1.10;;;8.30;38.10;;;;;;5065499;28;20236;-86
2022/12/27 10:26:07;;;;;;;1.92;1.13;;;8.20;42.80;;;;;;5059173;28;20210;-86
2022/12/27 10:28:39;;;;;;;1.88;1.20;;;8.10;42.40;;;;;;5063426;28;20575;-86
2022/12/27 10:31:06;;;;;;;1.95;1.20;;;8.00;41.10;;;;;;5057733;28;20224;-86
2022/12/27 10:33:35;;;;;;;1.33;1.10;;;8.00;41.10;;;;;;5063783;28;20209;-86
2022/12/27 10:36:09;;;;;;;3.42;1.13;;;8.10;39.00;;;;;;5058212;28;20558;-86
2022/12/27 10:38:36;;;;;;;1.25;1.15;;;8.50;38.00;;;;;;5057177;28;20221;-86
2022/12/27 10:41:20;;;;;;;1.02;0.90;;;8.80;33.70;;;;;;5059844;28;20650;-86
2022/12/27 10:43:50;;;;;;;1.17;0.90;;;9.10;30.70;;;;;;5063637;28;20213;-86
2022/12/27 10:46:21;;;;;;;3.47;1.00;;;9.10;32.50;;;;;;5062681;28;20311;-87
2022/12/27 10:48:58;;;;;;;1.33;1.00;;;9.20;33.00;;;;;;5064155;28;20209;-86
2022/12/27 10:51:26;;;;;;;1.20;1.10;;;9.40;31.10;;;;;;5057951;28;20201;-87
2022/12/27 10:53:59;;;;;;;2.30;0.90;;;9.60;30.60;;;;;;5061155;28;20205;-86
2022/12/27 10:56:28;;;;;;;2.22;1.02;;;9.70;27.60;;;;;;5052097;28;20201;-86
2022/12/27 10:59:07;;;;;;;0.80;0.70;;;9.60;25.60;;;;;;5059327;28;20615;-86
2022/12/27 11:01:34;;;;;;;2.50;0.90;;;9.70;24.90;;;;;;5070113;28;20205;-85
2022/12/27 11:04:18;;;;;;;2.25;1.40;;;9.50;26.50;;;;;;5058653;28;20604;-86
2022/12/27 11:06:47;;;;;;;2.05;0.90;;;9.30;26.90;;;;;;5063955;28;20203;-86
2022/12/27 11:09:29;;;;;;;0.80;0.80;;;9.40;26.70;;;;;;5057788;28;20313;-85
2022/12/27 11:12:16;;;;;;;1.20;1.00;;;9.00;29.30;;;;;;5057957;28;20683;-86
2022/12/27 11:14:58;;;;;;;1.05;0.90;;;8.80;27.80;;;;;;5066837;28;20247;-86
2022/12/27 11:17:30;;;;;;;2.28;1.30;;;8.50;29.20;;;;;;5056736;28;20221;-85
2022/12/27 11:20:02;;;;;;;2.13;1.10;;;8.20;30.90;;;;;;5058775;28;20198;-85
2022/12/27 11:22:29;;;;;;;1.45;1.10;;;7.90;34.70;;;;;;5059070;28;20582;-85
2022/12/27 11:25:00;;;;;;;1.88;1.00;;;7.90;31.80;;;;;;5062693;28;20537;-85
2022/12/27 11:27:28;;;;;;;1.40;1.10;;;8.00;32.10;;;;;;5055233;28;20646;-86
2022/12/27 11:29:58;;;;;;;2.25;1.10;;;8.00;33.80;;;;;;5060509;28;20204;-85
2022/12/27 11:32:25;;;;;;;1.60;1.10;;;7.90;34.70;;;;;;5058217;28;20208;-85
2022/12/27 11:34:54;;;;;;;0.98;0.80;;;7.90;33.10;;;;;;5055709;28;20537;-85
2022/12/27 11:37:25;;;;;;;2.80;1.10;;;7.90;35.40;;;;;;5065380;28;20232;-85
2022/12/27 11:39:53;;;;;;;3.13;1.25;;;7.90;35.00;;;;;;5058414;28;20213;-86
2022/12/27 11:42:29;;;;;;;1.17;1.00;;;7.90;34.20;;;;;;5056396;28;20576;-85
2022/12/27 11:45:04;;;;;;;2.40;1.00;;;7.90;34.20;;;;;;5057411;28;20201;-86
2022/12/27 11:47:38;;;;;;;1.08;0.95;;;7.90;32.50;;;;;;5057823;28;20211;-85
2022/12/27 11:50:24;;;;;;;0.95;0.88;;;7.90;35.00;;;;;;5057768;28;20220;-85
2022/12/27 11:53:07;;;;;;;2.15;1.13;;;7.90;37.40;;;;;;5056226;28;20651;-85
2022/12/27 11:55:56;;;;;;;1.45;1.10;;;7.80;38.30;;;;;;5057106;28;20197;-85
2022/12/27 11:58:42;;;;;;;4.95;1.00;;;7.80;40.10;;;;;;5059585;28;20689;-85
2022/12/27 12:01:38;;;;;;;2.90;1.23;;;7.70;40.00;;;;;;5055291;28;20540;-86
2022/12/27 12:04:21;;;;;;;1.90;1.20;;;7.80;42.40;;;;;;5055820;28;20206;-85
2022/12/27 12:06:55;;;;;;;6.47;1.25;;;7.90;42.60;;;;;;5057607;28;20202;-85
2022/12/27 12:09:54;;;;;;;2.80;1.13;;;7.90;43.40;;;;;;5059778;28;20228;-85
2022/12/27 12:12:56;;;;;;;3.60;1.10;;;7.90;44.90;;;;;;5058762;28;20198;-86
2022/12/27 12:16:17;;;;;;;1.77;1.20;;;7.80;46.50;;;;;;5047564;28;20209;-85
2022/12/27 12:18:59;;;;;;;1.85;1.15;;;7.80;46.90;;;;;;5060545;28;20271;-85
2022/12/27 12:21:32;;;;;;;1.08;0.90;;;7.70;50.70;;;;;;5056651;28;20201;-85
2022/12/27 12:24:35;;;;;;;2.65;1.10;;;7.80;54.50;;;;;;5055007;28;20603;-85
2022/12/27 12:27:21;;;;;;;4.63;1.50;;;7.90;50.00;;;;;;5059248;28;20201;-85
2022/12/27 12:30:11;;;;;;;2.10;1.10;;;7.80;55.30;;;;;;5056577;28;20240;-85
2022/12/27 12:33:03;;;;;;;1.55;1.20;;;7.80;56.00;;;;;;5063592;28;20202;-86
2022/12/27 12:35:46;;;;;;;2.33;1.50;;;7.90;52.00;;;;;;5062030;28;20557;-86
2022/12/27 12:38:21;;;;;;;2.33;1.10;;;8.00;53.30;;;;;;5054239;28;20231;-86
2022/12/27 12:41:05;;;;;;;1.20;1.10;;;8.00;52.60;;;;;;5058485;28;20201;-85
2022/12/27 12:43:55;;;;;;;1.52;1.10;;;8.10;53.50;;;;;;5055721;28;20221;-85
2022/12/27 12:46:31;;;;;;;1.67;1.30;;;8.10;50.80;;;;;;5058114;28;20678;-85
2022/12/27 12:49:25;;;;;;;1.77;1.10;;;8.00;50.30;;;;;;5058614;28;20684;-86
2022/12/27 12:52:10;;;;;;;2.38;1.27;;;7.80;55.60;;;;;;5058293;28;20197;-85
2022/12/27 12:54:54;;;;;;;2.00;1.20;;;7.70;58.60;;;;;;5056835;28;20209;-86
2022/12/27 12:57:36;;;;;;;2.63;1.05;;;7.70;57.40;;;;;;5060182;28;20223;-85
2022/12/27 13:00:26;;;;;;;1.42;1.20;;;7.70;61.40;;;;;;5065170;28;20636;-85
2022/12/27 13:03:31;;;;;;;2.53;1.30;;;7.70;61.00;;;;;;5059126;28;20670;-85
2022/12/27 13:06:06;;;;;;;2.47;1.40;;;7.60;63.50;;;;;;5057757;28;20645;-86
2022/12/27 13:08:40;;;;;;;2.45;1.23;;;7.70;65.10;;;;;;5062473;28;20287;-86
2022/12/27 13:11:43;;;;;;;1.98;1.30;;;7.70;62.90;;;;;;5061785;28;20194;-85
2022/12/27 13:14:34;;;;;;;2.35;1.10;;;7.80;60.50;;;;;;5051996;28;20666;-86
2022/12/27 13:17:10;;;;;;;4.60;1.50;;;7.80;59.50;;;;;;5060766;28;20190;-85
2022/12/27 13:19:53;;;;;;;2.67;1.30;;;7.90;59.20;;;;;;5059298;28;20228;-86
2022/12/27 13:22:32;;;;;;;1.98;1.15;;;7.80;62.10;;;;;;5061556;28;20598;-86
2022/12/27 13:25:15;;;;;;;4.18;1.50;;;7.60;67.90;;;;;;5063465;28;20210;-86
2022/12/27 13:27:51;;;;;;;3.42;1.40;;;7.60;67.20;;;;;;5090111;28;20206;-86
2022/12/27 13:30:21;;;;;;;2.05;1.40;;;7.60;72.40;;;;;;5060684;28;20205;-86
2022/12/27 13:33:23;;;;;;;3.47;1.45;;;7.60;72.50;;;;;;5064067;28;20668;-86
2022/12/27 13:36:17;;;;;;;4.93;1.50;;;7.60;75.50;;;;;;5060136;28;20200;-86
2022/12/27 13:39:01;;;;;;;3.65;1.88;;;7.60;75.80;;;;;;5056780;28;20227;-85
2022/12/27 13:41:47;;;;;;;4.53;1.60;;;7.50;75.20;;;;;;5063857;28;20197;-86
2022/12/27 13:44:26;;;;;;;3.63;1.30;;;7.50;76.20;;;;;;5061516;28;20197;-86
2022/12/27 13:47:21;;;;;;;3.33;1.48;;;7.40;79.40;;;;;;5057420;28;20557;-85
2022/12/27 13:50:03;;;;;;;3.38;1.60;;;7.30;79.00;;;;;;5059581;28;20205;-85
2022/12/27 13:52:51;;;;;;;5.20;1.30;;;7.30;81.20;;;;;;5057335;28;20209;-86
2022/12/27 13:55:36;;;;;;;4.13;1.70;;;7.30;79.70;;;;;;5060096;28;20205;-86
2022/12/27 13:58:41;;;;;;;2.30;1.48;;;7.20;81.70;;;;;;5063070;28;20220;-86
2022/12/27 14:01:29;;;;;;;2.13;1.45;;;7.30;81.10;;;;;;5051544;28;20193;-86
2022/12/27 14:04:15;;;;;;;2.97;1.50;;;7.30;81.30;;;;;;5054652;28;20198;-86
2022/12/27 14:07:07;;;;;;;3.20;1.73;;;7.20;82.60;;;;;;5061026;28;20206;-86
2022/12/27 14:10:13;;;;;;;4.75;1.80;;;7.10;85.20;;;;;;5060750;28;20238;-86
2022/12/27 14:12:58;;;;;;;3.60;1.70;;;7.10;85.20;;;;;;5051902;28;20208;-86
2022/12/27 14:15:34;;;;;;;2.30;1.48;;;7.10;85.80;;;;;;5060104;28;20713;-86
2022/12/27 14:18:17;;;;;;;2.88;1.58;;;7.00;86.80;;;;;;5056350;28;20221;-86
2022/12/27 14:21:01;;;;;;;3.30;1.80;;;7.00;86.60;;;;;;5059672;28;20208;-86
2022/12/27 14:23:48;;;;;;;4.07;1.63;;;7.00;87.10;;;;;;5060227;28;20701;-86
2022/12/27 14:26:48;;;;;;;2.80;1.60;;;7.00;87.10;;;;;;5054998;28;20618;-86
2022/12/27 14:29:39;;;;;;;4.20;1.88;;;7.00;87.20;;;;;;5055786;28;20213;-86
2022/12/27 14:32:43;;;;;;;2.67;1.60;;;6.90;89.60;;;;;;5058749;28;20677;-86
2022/12/27 14:35:41;;;;;;;5.03;2.00;;;6.80;90.00;;;;;;5061443;28;20209;-86
2022/12/27 14:38:34;;;;;;;5.15;1.65;;;6.70;90.00;;;;;;5057230;28;20268;-85
2022/12/27 14:41:28;;;;;;;7.50;1.50;;;6.70;90.00;;;;;;5063754;28;20205;-85
2022/12/27 14:44:34;;;;;;;3.45;1.77;;;6.70;90.00;;;;;;5060458;28;20565;-86
2022/12/27 14:47:35;;;;;;;6.15;1.70;;;6.60;90.30;;;;;;5059790;28;20215;-86
2022/12/27 14:50:47;;;;;;;2.83;1.65;;;6.60;90.50;;;;;;5055673;28;20564;-86
2022/12/27 14:54:00;;;;;;;4.05;1.70;;;6.50;90.50;;;;;;5059265;28;20194;-86
2022/12/27 14:56:42;;;;;;;3.90;1.80;;;6.40;91.10;;;;;;5062523;28;20664;-85
2022/12/27 14:59:22;;;;;;;4.55;1.92;;;6.20;91.70;;;;;;5061764;28;20312;-86
2022/12/27 15:02:08;;;;;;;6.73;1.83;;;6.10;92.10;;;;;;5054020;28;20208;-85
2022/12/27 15:05:08;;;;;;;3.78;1.95;;;6.10;92.60;;;;;;5069044;28;20193;-85
2022/12/27 15:07:55;;;;;;;3.67;1.88;;;6.00;92.80;;;;;;5052993;28;20213;-85
2022/12/27 15:10:31;;;;;;;4.10;2.30;;;5.90;92.90;;;;;;5056152;28;20230;-86
2022/12/27 15:13:11;;;;;;;4.28;2.00;;;5.90;93.00;;;;;;5058751;28;20258;-86